Time;durP1;ratioP1;P1;durP2;ratioP2;P2;SDS_P1;SDS_P2;PMS_P1;PMS_P2;Temp;Humidity;BMP_temperature;BMP_pressure;BME280_temperature;BME280_humidity;BME280_pressure;Samples;Min_cycle;Max_cycle;Signal;HPM_P1;HPM_P2
2024/03/27 00:00:52;;;;;;;5.00;2.50;;;;;;;4.18;60.42;95193.96;108368;1278;22590;-72
2024/03/27 00:03:43;;;;;;;3.50;2.10;;;;;;;4.18;60.46;95191.39;108324;1278;22525;-72
2024/03/27 00:06:14;;;;;;;3.00;1.80;;;;;;;4.16;60.61;95195.61;108321;1271;22516;-72
2024/03/27 00:08:51;;;;;;;2.10;1.30;;;;;;;4.15;60.56;95193.30;108346;1271;25247;-72
2024/03/27 00:11:24;;;;;;;1.90;1.30;;;;;;;4.17;60.39;95191.09;108365;1276;22522;-72
2024/03/27 00:14:03;;;;;;;2.20;1.50;;;;;;;4.21;60.32;95189.07;108152;1279;22554;-72
2024/03/27 00:16:38;;;;;;;2.00;1.20;;;;;;;4.21;60.10;95189.17;108178;1279;22601;-72
2024/03/27 00:19:11;;;;;;;2.00;1.60;;;;;;;4.17;60.27;95185.95;108126;1279;22532;-72
2024/03/27 00:21:44;;;;;;;2.90;1.70;;;;;;;4.13;60.07;95190.39;108165;1279;22528;-72
2024/03/27 00:24:17;;;;;;;1.80;1.20;;;;;;;4.11;60.15;95188.41;108147;1277;23752;-72
2024/03/27 00:26:52;;;;;;;2.30;1.60;;;;;;;4.09;60.11;95181.93;108178;1279;22533;-72
2024/03/27 00:29:23;;;;;;;2.30;1.50;;;;;;;4.14;60.10;95174.95;108170;1273;22554;-72
2024/03/27 00:31:54;;;;;;;4.10;2.40;;;;;;;4.11;60.22;95176.29;108123;1274;22528;-72
2024/03/27 00:34:27;;;;;;;5.50;2.60;;;;;;;3.95;60.61;95176.61;108148;1279;22539;-72
2024/03/27 00:36:59;;;;;;;2.60;1.50;;;;;;;3.80;61.08;95174.94;108167;1274;25394;-72
2024/03/27 00:39:32;;;;;;;2.50;1.40;;;;;;;3.76;61.02;95173.17;108199;1279;22710;-72
2024/03/27 00:42:07;;;;;;;2.40;1.30;;;;;;;3.78;61.17;95176.83;108192;1279;22525;-72
2024/03/27 00:44:39;;;;;;;2.60;1.80;;;;;;;3.82;61.08;95172.58;108166;1280;23531;-72
2024/03/27 00:47:12;;;;;;;3.40;1.50;;;;;;;3.84;61.16;95175.72;108175;1279;22543;-72
2024/03/27 00:49:43;;;;;;;2.10;1.40;;;;;;;3.73;61.40;95165.39;108157;1279;22781;-72
2024/03/27 00:52:13;;;;;;;3.80;2.40;;;;;;;3.71;61.66;95165.35;108147;1279;22518;-72
2024/03/27 00:54:46;;;;;;;4.30;2.60;;;;;;;3.66;61.91;95170.83;108160;1274;22529;-72
2024/03/27 00:57:21;;;;;;;3.80;2.30;;;;;;;3.52;62.22;95165.64;108183;1273;23878;-72
2024/03/27 00:59:58;;;;;;;2.80;1.90;;;;;;;3.47;62.51;95165.02;108155;1274;22582;-72
2024/03/27 01:02:29;;;;;;;3.00;1.80;;;;;;;3.46;62.66;95161.21;108135;1279;25341;-72
2024/03/27 01:05:04;;;;;;;2.90;1.40;;;;;;;3.47;62.74;95156.55;108124;1279;25281;-72
2024/03/27 01:07:35;;;;;;;2.10;1.30;;;;;;;3.47;62.64;95148.84;108145;1273;22630;-72
2024/03/27 01:10:16;;;;;;;2.10;1.40;;;;;;;3.48;62.51;95147.89;108160;1279;23314;-71
2024/03/27 01:12:49;;;;;;;2.30;1.10;;;;;;;3.46;62.40;95147.90;108285;1276;22907;-72
2024/03/27 01:15:23;;;;;;;2.40;0.90;;;;;;;3.37;62.30;95139.92;108326;1271;22568;-71
2024/03/27 01:17:56;;;;;;;1.70;1.10;;;;;;;3.35;62.22;95136.84;108334;1277;25288;-72
2024/03/27 01:20:29;;;;;;;2.60;1.30;;;;;;;3.34;62.47;95134.27;108327;1272;22546;-72
2024/03/27 01:23:00;;;;;;;2.50;1.10;;;;;;;3.26;62.40;95133.64;108404;1277;22538;-72
2024/03/27 01:25:32;;;;;;;1.70;1.00;;;;;;;3.29;62.53;95128.49;108295;1277;24934;-72
2024/03/27 01:28:03;;;;;;;1.40;1.10;;;;;;;3.40;62.44;95128.86;108283;1277;22553;-72
2024/03/27 01:30:36;;;;;;;1.50;1.10;;;;;;;3.64;62.12;95129.06;108331;1277;22525;-72
2024/03/27 01:33:07;;;;;;;3.50;1.10;;;;;;;3.75;61.76;95128.05;108349;1277;22627;-72
2024/03/27 01:35:45;;;;;;;2.50;1.50;;;;;;;3.64;62.07;95125.55;108322;1271;25304;-72
2024/03/27 01:38:19;;;;;;;2.80;1.90;;;;;;;3.56;62.26;95126.90;108308;1278;24262;-72
2024/03/27 01:40:50;;;;;;;3.30;2.30;;;;;;;3.41;62.50;95121.63;108363;1271;24231;-72
2024/03/27 01:43:20;;;;;;;4.30;2.30;;;;;;;3.28;62.79;95110.70;108341;1271;22534;-72
2024/03/27 01:45:54;;;;;;;2.70;1.70;;;;;;;3.19;62.96;95103.70;108291;1277;22525;-72
2024/03/27 01:48:25;;;;;;;2.60;1.60;;;;;;;3.17;62.99;95104.08;108307;1278;22977;-72
2024/03/27 01:51:00;;;;;;;2.20;1.40;;;;;;;3.17;63.06;95100.45;108378;1270;24953;-71
2024/03/27 01:53:32;;;;;;;1.50;1.00;;;;;;;3.21;62.87;95094.20;108299;1278;22541;-72
2024/03/27 01:56:04;;;;;;;2.30;1.00;;;;;;;3.28;62.87;95085.71;108333;1276;23476;-71
2024/03/27 01:58:35;;;;;;;2.80;1.20;;;;;;;3.33;62.88;95087.83;108311;1278;22539;-72
2024/03/27 02:01:07;;;;;;;2.50;1.40;;;;;;;3.39;63.01;95081.46;108317;1270;22879;-72
2024/03/27 02:03:37;;;;;;;3.50;1.30;;;;;;;3.54;62.71;95079.29;108337;1277;25290;-72
2024/03/27 02:06:10;;;;;;;2.90;1.30;;;;;;;3.62;62.34;95074.40;108298;1276;25294;-72
2024/03/27 02:08:45;;;;;;;2.60;1.30;;;;;;;3.58;62.35;95072.60;108317;1279;22518;-72
2024/03/27 02:11:22;;;;;;;2.00;1.50;;;;;;;3.55;62.46;95069.79;108332;1273;22562;-72
2024/03/27 02:13:55;;;;;;;2.20;1.60;;;;;;;3.34;62.43;95071.31;108303;1273;22524;-72
2024/03/27 02:16:26;;;;;;;2.70;1.80;;;;;;;3.37;62.33;95065.27;108331;1278;22525;-71
2024/03/27 02:18:58;;;;;;;2.30;1.20;;;;;;;3.50;62.33;95059.29;108357;1277;22525;-72
2024/03/27 02:21:31;;;;;;;3.80;1.30;;;;;;;3.63;62.02;95057.38;108329;1278;23918;-72
2024/03/27 02:24:17;;;;;;;1.40;1.20;;;;;;;3.78;61.62;95049.35;108268;1276;26378;-72
2024/03/27 02:26:49;;;;;;;3.60;1.40;;;;;;;3.84;61.53;95046.33;108323;1278;22578;-72
2024/03/27 02:29:21;;;;;;;2.30;1.30;;;;;;;3.84;61.43;95052.83;108336;1271;25452;-72
2024/03/27 02:31:55;;;;;;;3.00;1.30;;;;;;;3.81;61.51;95052.38;108344;1276;25919;-72
2024/03/27 02:34:28;;;;;;;2.00;1.40;;;;;;;3.82;61.22;95044.30;108319;1271;22821;-72
2024/03/27 02:37:01;;;;;;;3.10;1.50;;;;;;;3.88;60.95;95041.98;108328;1277;22529;-72
2024/03/27 02:39:34;;;;;;;2.40;1.60;;;;;;;3.93;60.98;95042.90;108315;1271;22521;-72
2024/03/27 02:42:07;;;;;;;3.40;1.30;;;;;;;3.90;60.74;95042.77;108357;1276;25240;-72
2024/03/27 02:44:37;;;;;;;1.70;1.20;;;;;;;3.85;60.77;95040.18;108293;1277;27229;-72
2024/03/27 02:47:08;;;;;;;2.10;1.30;;;;;;;3.82;60.73;95037.33;108332;1278;25360;-72
2024/03/27 02:49:41;;;;;;;2.40;1.20;;;;;;;3.87;60.52;95036.02;108353;1278;22527;-72
2024/03/27 02:52:13;;;;;;;2.20;1.60;;;;;;;3.88;60.62;95035.80;108331;1272;22538;-72
2024/03/27 02:54:47;;;;;;;3.60;2.10;;;;;;;3.69;60.92;95026.84;108315;1277;22539;-72
2024/03/27 02:57:20;;;;;;;2.70;1.60;;;;;;;3.57;61.10;95012.81;108294;1278;22518;-72
2024/03/27 02:59:53;;;;;;;3.40;1.30;;;;;;;3.56;61.26;95016.54;108311;1271;22641;-72
2024/03/27 03:02:26;;;;;;;3.90;2.10;;;;;;;3.66;61.36;95006.63;108358;1278;22583;-72
2024/03/27 03:04:56;;;;;;;5.20;1.80;;;;;;;3.53;61.32;95004.14;108287;1278;24294;-72
2024/03/27 03:07:27;;;;;;;6.00;2.30;;;;;;;3.47;61.46;95004.70;108322;1278;22571;-72
2024/03/27 03:09:58;;;;;;;2.60;1.70;;;;;;;3.51;61.46;94998.86;108312;1271;22524;-72
2024/03/27 03:12:29;;;;;;;2.10;1.40;;;;;;;3.61;61.42;94994.45;108318;1278;22686;-72
2024/03/27 03:15:05;;;;;;;2.70;1.40;;;;;;;3.76;61.22;94989.14;108285;1276;23304;-72
2024/03/27 03:17:36;;;;;;;4.00;1.60;;;;;;;4.08;60.94;94978.11;108277;1271;22596;-72
2024/03/27 03:20:10;;;;;;;1.90;1.20;;;;;;;4.42;60.42;94973.20;108289;1274;23881;-72
2024/03/27 03:22:40;;;;;;;3.80;1.70;;;;;;;4.58;59.75;94973.24;108338;1278;22536;-72
2024/03/27 03:25:11;;;;;;;5.50;1.60;;;;;;;4.66;59.47;94966.91;108289;1277;23735;-72
2024/03/27 03:27:42;;;;;;;2.20;1.50;;;;;;;4.68;59.06;94965.06;108288;1271;22568;-72
2024/03/27 03:30:14;;;;;;;2.10;1.50;;;;;;;4.67;58.80;94965.39;108348;1255;22577;-72
2024/03/27 03:32:46;;;;;;;1.90;1.10;;;;;;;4.69;58.76;94959.05;108290;1278;24233;-72
2024/03/27 03:35:19;;;;;;;2.90;1.40;;;;;;;4.79;58.57;94956.52;108341;1271;23177;-72
2024/03/27 03:37:49;;;;;;;1.70;1.20;;;;;;;4.86;58.31;94949.50;108328;1270;24262;-72
2024/03/27 03:40:23;;;;;;;4.90;1.60;;;;;;;4.82;58.20;94948.30;108320;1279;25419;-72
2024/03/27 03:42:54;;;;;;;2.80;1.40;;;;;;;4.91;58.03;94939.02;108331;1271;22530;-72
2024/03/27 03:45:27;;;;;;;2.40;1.50;;;;;;;4.89;57.70;94929.66;108310;1271;25667;-72
2024/03/27 03:47:59;;;;;;;2.20;1.30;;;;;;;4.82;57.56;94917.48;108316;1278;22494;-72
2024/03/27 03:50:29;;;;;;;1.80;1.20;;;;;;;4.79;57.71;94921.45;108319;1278;22520;-72
2024/03/27 03:53:00;;;;;;;1.70;1.20;;;;;;;4.76;57.63;94917.73;108320;1278;22522;-72
2024/03/27 03:55:31;;;;;;;2.70;1.20;;;;;;;4.80;57.62;94914.36;108308;1278;22572;-72
2024/03/27 03:58:02;;;;;;;2.30;1.50;;;;;;;4.85;57.26;94906.77;108331;1267;22539;-72
2024/03/27 04:00:35;;;;;;;1.90;1.20;;;;;;;4.83;57.47;94897.66;108365;1278;22568;-72
2024/03/27 04:03:06;;;;;;;3.20;1.70;;;;;;;4.73;57.43;94891.59;108325;1272;22522;-72
2024/03/27 04:05:40;;;;;;;2.30;1.40;;;;;;;4.66;57.73;94882.08;108297;1271;22611;-72
2024/03/27 04:08:13;;;;;;;2.70;1.70;;;;;;;4.60;57.95;94883.14;108348;1277;23876;-72
2024/03/27 04:10:48;;;;;;;2.00;1.30;;;;;;;4.57;57.74;94889.23;108335;1271;22523;-72
2024/03/27 04:13:21;;;;;;;1.80;1.00;;;;;;;4.58;57.75;94893.46;108341;1277;22529;-72
2024/03/27 04:15:55;;;;;;;3.40;1.40;;;;;;;4.67;57.52;94896.81;108328;1277;22545;-72
2024/03/27 04:18:28;;;;;;;2.70;1.10;;;;;;;4.75;57.48;94891.03;108313;1271;24210;-72
2024/03/27 04:21:07;;;;;;;2.50;1.30;;;;;;;4.74;57.39;94889.52;108353;1271;23270;-72
2024/03/27 04:23:37;;;;;;;2.30;1.20;;;;;;;4.75;57.39;94876.91;108342;1277;22537;-72
2024/03/27 04:26:11;;;;;;;2.20;1.30;;;;;;;4.81;57.39;94870.91;108322;1271;22542;-72
2024/03/27 04:28:44;;;;;;;2.70;1.60;;;;;;;4.81;57.33;94864.61;108361;1277;23841;-72
2024/03/27 04:31:20;;;;;;;1.80;1.10;;;;;;;4.77;57.44;94862.55;108347;1277;22529;-72
2024/03/27 04:33:51;;;;;;;2.30;1.30;;;;;;;4.80;57.32;94859.95;108309;1277;22522;-72
2024/03/27 04:36:24;;;;;;;2.40;1.20;;;;;;;4.87;57.39;94858.52;108327;1271;23784;-72
2024/03/27 04:38:57;;;;;;;2.20;1.50;;;;;;;4.97;57.41;94856.77;108313;1277;23996;-72
2024/03/27 04:41:30;;;;;;;3.40;1.40;;;;;;;5.02;57.15;94860.14;108308;1255;22586;-72
2024/03/27 04:44:01;;;;;;;2.30;1.40;;;;;;;5.03;57.35;94858.98;108299;1277;22521;-72
2024/03/27 04:46:31;;;;;;;4.40;1.40;;;;;;;5.00;57.38;94858.92;108294;1271;24281;-72
2024/03/27 04:49:02;;;;;;;3.20;1.20;;;;;;;5.13;57.42;94855.05;108330;1277;22578;-72
2024/03/27 04:51:35;;;;;;;2.90;1.50;;;;;;;5.29;57.26;94854.39;108309;1276;22528;-72
2024/03/27 04:54:07;;;;;;;1.80;1.20;;;;;;;5.42;57.20;94853.48;108326;1271;22529;-72
2024/03/27 04:56:40;;;;;;;3.50;1.40;;;;;;;5.46;57.14;94852.90;108280;1277;24361;-72
2024/03/27 04:59:13;;;;;;;3.50;1.40;;;;;;;5.42;57.41;94856.64;108281;1277;22512;-72
2024/03/27 05:01:49;;;;;;;3.60;1.60;;;;;;;5.39;57.38;94851.77;108300;1277;22514;-72
2024/03/27 05:04:22;;;;;;;3.80;1.70;;;;;;;5.42;57.49;94863.73;108368;1277;22534;-72
2024/03/27 05:06:54;;;;;;;3.30;1.60;;;;;;;5.41;57.42;94860.86;108348;1271;22520;-72
2024/03/27 05:09:27;;;;;;;2.50;1.60;;;;;;;5.42;57.85;94857.12;108333;1271;22548;-72
2024/03/27 05:12:06;;;;;;;3.60;1.70;;;;;;;5.52;58.02;94853.89;108304;1255;22725;-71
2024/03/27 05:14:39;;;;;;;4.40;1.80;;;;;;;5.69;58.47;94841.10;108305;1277;23296;-72
2024/03/27 05:17:12;;;;;;;6.10;2.40;;;;;;;5.90;58.68;94837.67;108285;1277;22543;-72
2024/03/27 05:19:49;;;;;;;5.70;2.60;;;;;;;6.02;58.80;94840.19;108310;1277;22702;-72
2024/03/27 05:22:27;;;;;;;3.60;2.00;;;;;;;6.00;58.69;94845.34;108273;1277;22521;-72
2024/03/27 05:25:01;;;;;;;5.20;2.20;;;;;;;5.99;58.63;94847.36;108326;1277;25752;-72
2024/03/27 05:27:33;;;;;;;4.60;2.00;;;;;;;6.02;58.84;94849.56;108339;1271;22623;-72
2024/03/27 05:30:10;;;;;;;3.50;1.70;;;;;;;6.03;58.91;94840.29;108295;1277;25429;-72
2024/03/27 05:32:45;;;;;;;7.00;3.00;;;;;;;6.03;59.30;94848.59;108353;1277;25248;-72
2024/03/27 05:35:19;;;;;;;4.60;2.30;;;;;;;6.12;59.67;94848.11;108303;1277;24260;-72
2024/03/27 05:37:54;;;;;;;4.10;2.30;;;;;;;6.33;60.16;94854.80;108294;1276;22521;-72
2024/03/27 05:40:25;;;;;;;4.00;2.30;;;;;;;6.51;60.24;94846.33;108324;1271;25249;-72
2024/03/27 05:42:57;;;;;;;5.60;2.50;;;;;;;6.66;60.29;94852.86;108340;1277;23988;-72
2024/03/27 05:45:30;;;;;;;2.80;2.10;;;;;;;6.89;60.48;94851.38;108315;1277;23578;-72
2024/03/27 05:48:01;;;;;;;7.60;2.90;;;;;;;7.07;60.69;94856.27;108316;1271;24668;-72
2024/03/27 05:50:33;;;;;;;3.90;2.20;;;;;;;7.15;60.90;94849.88;108352;1277;22637;-72
2024/03/27 05:53:04;;;;;;;5.10;2.60;;;;;;;7.26;61.07;94843.71;108222;1272;24622;-72
2024/03/27 05:55:38;;;;;;;6.50;2.50;;;;;;;7.34;61.20;94848.48;108283;1277;23336;-72
2024/03/27 05:58:09;;;;;;;6.30;2.70;;;;;;;7.42;61.13;94848.13;108365;1258;25213;-72
2024/03/27 06:00:41;;;;;;;6.80;2.90;;;;;;;7.50;61.12;94850.48;108330;1277;25505;-72
2024/03/27 06:03:12;;;;;;;6.90;3.80;;;;;;;7.54;60.97;94852.73;108408;1277;23339;-72
2024/03/27 06:05:43;;;;;;;5.80;2.30;;;;;;;7.54;60.88;94850.07;108171;1278;185981;-72
2024/03/27 06:08:15;;;;;;;5.70;2.80;;;;;;;7.55;61.11;94852.77;108324;1272;22579;-72
2024/03/27 06:10:47;;;;;;;5.10;2.50;;;;;;;7.65;61.31;94853.33;108501;1278;23822;-72
2024/03/27 06:13:19;;;;;;;9.50;3.20;;;;;;;7.73;61.24;94853.16;108360;1278;22521;-72
2024/03/27 06:15:51;;;;;;;3.40;2.00;;;;;;;7.79;61.27;94856.88;108285;1278;25219;-72
2024/03/27 06:18:26;;;;;;;8.20;2.40;;;;;;;7.92;61.46;94856.66;108331;1271;26848;-72
2024/03/27 06:21:00;;;;;;;6.10;2.50;;;;;;;8.06;61.51;94859.02;108309;1277;24227;-72
2024/03/27 06:23:35;;;;;;;6.30;2.60;;;;;;;8.17;61.29;94860.73;108373;1278;24262;-72
2024/03/27 06:26:08;;;;;;;6.10;2.60;;;;;;;8.26;61.13;94867.96;108272;1277;25424;-72
2024/03/27 06:28:39;;;;;;;8.70;2.50;;;;;;;8.36;60.93;94873.66;108340;1278;22770;-72
2024/03/27 06:31:09;;;;;;;4.10;2.40;;;;;;;8.48;60.82;94875.95;108312;1278;22509;-72
2024/03/27 06:33:42;;;;;;;5.10;2.60;;;;;;;8.61;60.71;94881.77;108362;1278;22969;-72
2024/03/27 06:36:15;;;;;;;6.80;2.40;;;;;;;8.73;60.44;94884.82;108321;1278;22522;-72
2024/03/27 06:38:48;;;;;;;6.40;2.50;;;;;;;8.85;60.31;94885.80;108354;1277;22678;-72
2024/03/27 06:41:20;;;;;;;5.20;2.60;;;;;;;8.98;59.97;94884.56;108382;1276;22537;-72
2024/03/27 06:43:51;;;;;;;4.20;3.00;;;;;;;9.21;59.90;94884.05;108367;1278;22942;-72
2024/03/27 06:46:24;;;;;;;6.80;3.00;;;;;;;9.61;59.78;94885.41;108298;1277;23863;-72
2024/03/27 06:49:07;;;;;;;7.30;3.00;;;;;;;10.20;59.39;94882.70;108362;1272;25291;-72
2024/03/27 06:51:38;;;;;;;7.10;3.10;;;;;;;11.36;59.65;94878.02;108351;1271;22668;-72
2024/03/27 06:54:11;;;;;;;10.30;5.70;;;;;;;12.85;59.20;94878.23;108417;1276;23917;-72
2024/03/27 06:56:42;;;;;;;8.80;4.20;;;;;;;14.07;57.57;94873.05;108138;1273;22525;-71
2024/03/27 06:59:15;;;;;;;9.40;3.50;;;;;;;15.04;56.25;94867.26;108328;1278;22522;-72
2024/03/27 07:01:48;;;;;;;9.40;3.00;;;;;;;16.17;55.29;94866.04;108360;1277;26559;-71
2024/03/27 07:04:25;;;;;;;5.20;3.10;;;;;;;17.60;53.97;94863.30;108284;1277;22585;-72
2024/03/27 07:06:56;;;;;;;6.00;2.70;;;;;;;19.07;52.70;94861.05;108295;1272;22522;-73
2024/03/27 07:09:30;;;;;;;6.90;3.30;;;;;;;19.99;50.55;94857.02;108338;1278;23270;-72
2024/03/27 07:12:00;;;;;;;4.10;2.80;;;;;;;20.51;49.28;94856.94;108347;1278;23890;-72
2024/03/27 07:14:31;;;;;;;6.20;2.80;;;;;;;21.59;48.44;94860.86;108301;1272;22529;-72
2024/03/27 07:17:05;;;;;;;7.10;2.90;;;;;;;22.61;46.94;94856.23;108291;1274;25093;-72
2024/03/27 07:19:39;;;;;;;5.80;2.10;;;;;;;23.50;45.68;94859.04;108353;1274;22531;-71
2024/03/27 07:22:10;;;;;;;5.40;2.40;;;;;;;23.94;43.41;94855.44;108431;1276;22565;-71
2024/03/27 07:24:43;;;;;;;4.50;2.30;;;;;;;24.04;42.60;94850.64;108382;1276;22839;-71
2024/03/27 07:27:14;;;;;;;5.10;2.30;;;;;;;24.63;42.23;94851.44;108399;1272;22533;-71
2024/03/27 07:29:44;;;;;;;4.50;2.30;;;;;;;25.37;41.04;94846.23;108363;1273;24199;-71
2024/03/27 07:32:17;;;;;;;11.90;3.20;;;;;;;25.35;39.64;94852.31;108316;1271;22667;-71
2024/03/27 07:34:48;;;;;;;6.10;2.60;;;;;;;24.97;38.02;94856.23;108353;1277;22514;-71
2024/03/27 07:37:21;;;;;;;5.60;2.50;;;;;;;24.93;38.48;94855.30;108402;1278;22521;-71
2024/03/27 07:39:54;;;;;;;5.50;2.70;;;;;;;25.21;37.46;94856.30;108379;1277;22530;-72
2024/03/27 07:42:25;;;;;;;4.60;2.40;;;;;;;25.75;37.74;94854.35;108376;1278;23301;-72
2024/03/27 07:45:01;;;;;;;4.40;2.50;;;;;;;25.88;36.26;94850.21;108331;1278;25489;-71
2024/03/27 07:47:32;;;;;;;5.20;2.40;;;;;;;26.11;36.64;94844.05;108351;1272;22894;-71
2024/03/27 07:50:05;;;;;;;4.10;2.20;;;;;;;26.93;36.49;94841.63;108365;1278;22566;-72
2024/03/27 07:52:36;;;;;;;3.40;1.90;;;;;;;27.86;36.01;94837.77;108346;1272;22564;-72
2024/03/27 07:55:09;;;;;;;7.20;2.20;;;;;;;28.75;35.71;94832.07;108250;1256;22579;-72
2024/03/27 07:57:39;;;;;;;7.80;2.10;;;;;;;29.55;34.82;94825.77;108358;1278;22535;-72
2024/03/27 08:00:13;;;;;;;7.30;2.20;;;;;;;29.97;33.99;94825.60;108353;1278;22528;-73
2024/03/27 08:02:44;;;;;;;4.70;1.80;;;;;;;30.04;33.40;94828.19;108327;1279;24079;-72
2024/03/27 08:05:16;;;;;;;4.80;1.70;;;;;;;29.83;32.51;94829.68;108333;1262;22567;-72
2024/03/27 08:07:49;;;;;;;5.20;2.10;;;;;;;30.16;32.87;94833.05;108329;1278;22532;-72
2024/03/27 08:10:22;;;;;;;4.70;1.40;;;;;;;30.64;32.24;94831.52;108358;1272;22522;-72
2024/03/27 08:12:56;;;;;;;4.80;1.90;;;;;;;30.85;31.89;94832.04;108398;1274;22522;-72
2024/03/27 08:15:29;;;;;;;5.20;2.20;;;;;;;31.23;31.77;94834.30;108342;1278;26594;-72
2024/03/27 08:18:06;;;;;;;4.20;1.80;;;;;;;31.33;31.25;94830.91;108381;1278;22528;-72
2024/03/27 08:20:37;;;;;;;4.60;1.60;;;;;;;31.55;30.49;94834.31;108380;1278;24312;-72
2024/03/27 08:23:13;;;;;;;3.10;1.90;;;;;;;31.34;30.22;94831.33;108354;1273;25142;-72
2024/03/27 08:25:43;;;;;;;4.20;1.70;;;;;;;31.04;29.94;94826.02;108283;1276;22548;-72
2024/03/27 08:28:15;;;;;;;4.10;1.90;;;;;;;30.14;29.40;94823.62;108314;1278;22854;-72
2024/03/27 08:30:49;;;;;;;4.30;1.70;;;;;;;29.64;29.92;94825.06;108302;1272;22535;-72
2024/03/27 08:33:23;;;;;;;4.20;1.50;;;;;;;28.45;28.45;94824.13;108192;1278;22529;-72
2024/03/27 08:35:58;;;;;;;3.60;1.60;;;;;;;27.24;29.76;94824.63;108285;1278;22653;-72
2024/03/27 08:38:32;;;;;;;3.80;1.80;;;;;;;26.06;29.21;94820.90;108294;1278;22519;-71
2024/03/27 08:41:03;;;;;;;6.50;2.10;;;;;;;24.26;30.93;94826.36;108338;1278;22539;-72
2024/03/27 08:43:36;;;;;;;4.40;2.00;;;;;;;23.94;32.49;94825.97;108216;1272;23135;-72
2024/03/27 08:46:17;;;;;;;6.00;1.60;;;;;;;24.08;32.60;94828.10;108355;1271;22532;-72
2024/03/27 08:48:48;;;;;;;5.80;1.60;;;;;;;24.08;33.37;94823.99;108329;1276;23663;-72
2024/03/27 08:51:23;;;;;;;4.10;1.90;;;;;;;24.38;33.12;94822.49;108416;1275;24308;-72
2024/03/27 08:53:55;;;;;;;3.00;1.30;;;;;;;23.32;32.89;94824.83;108380;1272;22709;-71
2024/03/27 08:56:30;;;;;;;3.90;1.90;;;;;;;22.38;33.92;94819.49;108356;1278;22532;-72
2024/03/27 08:59:01;;;;;;;4.30;1.80;;;;;;;21.50;35.00;94816.53;108361;1277;22528;-72
2024/03/27 09:01:36;;;;;;;6.10;2.20;;;;;;;20.57;35.87;94820.17;108319;1272;25301;-72
2024/03/27 09:04:07;;;;;;;4.50;2.20;;;;;;;20.03;36.81;94818.37;108406;1277;23677;-72
2024/03/27 09:06:41;;;;;;;3.60;1.90;;;;;;;19.22;37.59;94820.92;108230;1272;22558;-72
2024/03/27 09:09:14;;;;;;;3.40;1.60;;;;;;;18.89;38.63;94820.06;108303;1271;22593;-71
2024/03/27 09:11:51;;;;;;;3.70;1.50;;;;;;;18.68;39.17;94826.21;108374;1277;22538;-71
2024/03/27 09:14:21;;;;;;;5.20;1.60;;;;;;;18.76;39.90;94827.27;108372;1271;22540;-72
2024/03/27 09:16:57;;;;;;;3.50;1.80;;;;;;;18.86;40.00;94820.52;108407;1269;22523;-74
2024/03/27 09:19:30;;;;;;;2.20;1.20;;;;;;;18.97;40.13;94811.20;108401;1273;25282;-74
2024/03/27 09:22:04;;;;;;;2.90;1.90;;;;;;;18.78;40.14;94816.38;108466;1278;22521;-73
2024/03/27 09:24:35;;;;;;;2.80;1.70;;;;;;;18.39;40.52;94816.84;108410;1278;22712;-73
2024/03/27 09:27:06;;;;;;;3.20;1.70;;;;;;;17.96;40.90;94814.19;108463;1277;26465;-73
2024/03/27 09:29:37;;;;;;;2.60;1.80;;;;;;;17.69;41.57;94810.98;108478;1276;22540;-73
2024/03/27 09:32:09;;;;;;;3.20;1.60;;;;;;;17.45;42.25;94809.11;108382;1277;22545;-73
2024/03/27 09:34:42;;;;;;;5.40;1.90;;;;;;;17.11;42.67;94804.41;108400;1277;22532;-73
2024/03/27 09:37:13;;;;;;;5.50;1.80;;;;;;;17.20;43.68;94809.11;108383;1278;22559;-73
2024/03/27 09:39:49;;;;;;;2.80;1.50;;;;;;;17.44;43.72;94815.44;108444;1277;22532;-73
2024/03/27 09:42:26;;;;;;;3.30;1.50;;;;;;;17.53;43.52;94816.85;108379;1273;22693;-73
2024/03/27 09:44:57;;;;;;;2.70;1.60;;;;;;;17.51;43.88;94815.06;108237;1256;22579;-72
2024/03/27 09:47:39;;;;;;;2.90;1.60;;;;;;;17.63;43.96;94809.00;108368;1276;22985;-73
2024/03/27 09:50:14;;;;;;;2.90;1.60;;;;;;;17.77;44.15;94805.95;108180;1275;24932;-72
2024/03/27 09:52:48;;;;;;;4.00;1.80;;;;;;;17.76;43.80;94804.78;108414;1277;22529;-71
2024/03/27 09:55:20;;;;;;;4.30;2.10;;;;;;;17.45;44.12;94815.07;108386;1275;47920;-72
2024/03/27 09:57:50;;;;;;;4.30;2.30;;;;;;;17.44;44.63;94810.09;108426;1278;22550;-72
2024/03/27 10:00:24;;;;;;;5.00;1.80;;;;;;;17.63;44.57;94810.14;108397;1277;22526;-72
2024/03/27 10:02:59;;;;;;;5.20;2.00;;;;;;;17.86;44.85;94804.97;108382;1276;24997;-72
2024/03/27 10:05:37;;;;;;;4.10;1.50;;;;;;;17.93;44.35;94804.89;108348;1278;24259;-72
2024/03/27 10:08:15;;;;;;;2.50;1.50;;;;;;;17.55;43.68;94802.63;108444;1277;22545;-72
2024/03/27 10:10:46;;;;;;;3.40;1.50;;;;;;;17.12;44.17;94806.51;108458;1272;23304;-72
2024/03/27 10:13:20;;;;;;;4.40;1.50;;;;;;;17.01;45.25;94802.21;108267;1278;22526;-71
2024/03/27 10:15:54;;;;;;;2.20;1.80;;;;;;;16.85;45.28;94799.34;108322;1278;23980;-72
2024/03/27 10:18:29;;;;;;;2.10;1.20;;;;;;;16.65;45.60;94796.42;108453;1277;22531;-72
2024/03/27 10:21:02;;;;;;;1.50;1.20;;;;;;;16.57;45.94;94787.59;108324;1278;22623;-72
2024/03/27 10:23:37;;;;;;;2.90;1.60;;;;;;;16.61;46.07;94786.52;108326;1278;22530;-72
2024/03/27 10:26:09;;;;;;;4.10;1.90;;;;;;;16.71;46.64;94794.84;108378;1277;22527;-72
2024/03/27 10:28:44;;;;;;;3.70;1.50;;;;;;;16.93;47.10;94796.30;108369;1278;25285;-72
2024/03/27 10:31:15;;;;;;;4.10;2.20;;;;;;;17.29;46.96;94794.76;108381;1277;22575;-72
2024/03/27 10:33:47;;;;;;;5.40;1.80;;;;;;;17.47;46.24;94792.05;108417;1278;25435;-72
2024/03/27 10:36:26;;;;;;;3.00;1.90;;;;;;;17.58;46.91;94794.86;108336;1278;22565;-72
2024/03/27 10:39:00;;;;;;;4.20;1.40;;;;;;;17.77;46.22;94789.27;108416;1276;22529;-72
2024/03/27 10:41:32;;;;;;;2.30;1.30;;;;;;;17.50;44.78;94790.31;108345;1278;22536;-72
2024/03/27 10:44:10;;;;;;;3.40;1.40;;;;;;;17.03;45.51;94780.52;108323;1278;22519;-71
2024/03/27 10:46:47;;;;;;;2.40;1.60;;;;;;;16.87;45.90;94781.54;108377;1273;22567;-72
2024/03/27 10:49:21;;;;;;;3.30;1.60;;;;;;;16.80;46.59;94763.10;108385;1275;26338;-72
2024/03/27 10:51:54;;;;;;;2.90;1.60;;;;;;;16.85;46.64;94761.09;108470;1255;22543;-72
2024/03/27 10:54:27;;;;;;;2.70;1.40;;;;;;;16.88;46.89;94758.53;108376;1278;22567;-72
2024/03/27 10:57:04;;;;;;;3.30;1.60;;;;;;;16.99;46.60;94754.68;108419;1278;22531;-73
2024/03/27 10:59:39;;;;;;;2.80;1.50;;;;;;;16.95;46.29;94756.56;108386;1277;22530;-72
2024/03/27 11:02:15;;;;;;;2.50;1.30;;;;;;;17.05;47.01;94756.14;108378;1273;23175;-73
2024/03/27 11:04:54;;;;;;;2.50;1.40;;;;;;;17.33;47.06;94750.04;108354;1272;24365;-73
2024/03/27 11:07:33;;;;;;;2.10;1.60;;;;;;;17.52;46.63;94752.92;108247;1278;26442;-74
2024/03/27 11:10:12;;;;;;;3.40;1.70;;;;;;;17.63;46.75;94755.70;108404;1278;25246;-73
2024/03/27 11:12:48;;;;;;;3.50;1.60;;;;;;;17.82;46.68;94751.62;108351;1271;22617;-73
2024/03/27 11:15:19;;;;;;;2.60;1.60;;;;;;;17.96;46.85;94753.52;108231;1278;22567;-74
2024/03/27 11:17:54;;;;;;;3.10;1.60;;;;;;;18.12;46.63;94755.55;108300;1278;22641;-74
2024/03/27 11:20:28;;;;;;;3.20;1.50;;;;;;;18.16;46.23;94747.70;108414;1259;22554;-74
2024/03/27 11:23:02;;;;;;;4.50;1.60;;;;;;;18.12;46.14;94754.70;108362;1278;25294;-75
2024/03/27 11:25:35;;;;;;;4.50;1.60;;;;;;;18.14;46.19;94763.45;108368;1278;28536;-74
2024/03/27 11:28:17;;;;;;;5.10;2.40;;;;;;;18.12;45.90;94762.38;108395;1278;26492;-75
2024/03/27 11:30:49;;;;;;;2.30;1.60;;;;;;;18.05;45.53;94763.23;108375;1277;22523;-74
2024/03/27 11:33:24;;;;;;;3.20;1.50;;;;;;;18.02;45.62;94760.22;108336;1277;25293;-74
2024/03/27 11:35:54;;;;;;;2.20;1.40;;;;;;;18.08;45.82;94761.42;108377;1278;22645;-74
2024/03/27 11:38:30;;;;;;;1.90;1.20;;;;;;;18.25;45.83;94760.87;108365;1278;25008;-74
2024/03/27 11:41:04;;;;;;;2.40;1.30;;;;;;;18.36;45.53;94756.13;108423;1278;22527;-74
2024/03/27 11:43:37;;;;;;;3.00;1.70;;;;;;;18.42;44.95;94759.67;108354;1278;25291;-74
2024/03/27 11:46:12;;;;;;;1.80;1.20;;;;;;;18.26;44.36;94759.20;108307;1278;23003;-74
2024/03/27 11:48:43;;;;;;;2.60;1.70;;;;;;;17.96;44.55;94759.41;108325;1278;23285;-73
2024/03/27 11:51:16;;;;;;;2.20;1.20;;;;;;;17.62;44.60;94765.76;108308;1277;27834;-73
2024/03/27 11:53:53;;;;;;;2.50;1.50;;;;;;;17.41;45.70;94769.79;108317;1278;22985;-72
2024/03/27 11:56:29;;;;;;;1.90;1.10;;;;;;;17.37;45.73;94759.95;108235;1278;23155;-73